createdAt,value
2023-01-30T00:00:50.795Z,0.00
2023-01-30T00:01:50.807Z,0.00
2023-01-30T00:02:50.755Z,0.00
2023-01-30T00:03:50.736Z,0.00
2023-01-30T00:04:50.778Z,0.00
2023-01-30T00:05:50.758Z,0.00
2023-01-30T00:06:50.713Z,0.00
2023-01-30T00:07:50.690Z,0.00
2023-01-30T00:08:50.689Z,0.00
2023-01-30T00:09:50.694Z,0.00
2023-01-30T00:10:50.739Z,0.00
2023-01-30T00:11:50.694Z,0.00
2023-01-30T00:12:50.653Z,0.00
2023-01-30T00:13:50.664Z,0.00
2023-01-30T00:14:50.624Z,0.00
2023-01-30T00:15:50.617Z,0.00
2023-01-30T00:16:50.639Z,0.00
2023-01-30T00:17:50.613Z,0.00
2023-01-30T00:18:50.592Z,0.00
2023-01-30T00:19:50.583Z,0.00
2023-01-30T00:20:50.564Z,0.00
2023-01-30T00:21:50.576Z,0.00
2023-01-30T00:23:00.407Z,0.00
2023-01-30T00:23:50.551Z,0.00
2023-01-30T00:24:50.613Z,0.00
2023-01-30T00:25:50.689Z,0.00
2023-01-30T00:26:50.544Z,0.00
2023-01-30T00:27:50.495Z,0.00
2023-01-30T00:28:50.484Z,0.00
2023-01-30T00:30:02.184Z,0.00
2023-01-30T00:30:50.538Z,0.00
2023-01-30T00:31:50.526Z,0.00
2023-01-30T00:32:50.448Z,0.00
2023-01-30T00:33:50.451Z,0.00
2023-01-30T00:34:50.421Z,0.00
2023-01-30T00:35:50.435Z,0.00
2023-01-30T00:43:13.994Z,0.00
2023-01-30T00:43:19.026Z,0.00
2023-01-30T00:44:19.011Z,0.00
2023-01-30T00:45:19.429Z,0.00
2023-01-30T00:46:19.017Z,0.00
2023-01-30T00:47:18.976Z,0.00
2023-01-30T00:48:18.966Z,0.00
2023-01-30T00:49:18.959Z,0.00
2023-01-30T00:50:18.955Z,0.00
2023-01-30T00:51:18.967Z,0.00
2023-01-30T00:52:18.926Z,0.00
2023-01-30T00:53:18.916Z,0.00
2023-01-30T00:54:18.926Z,0.00
2023-01-30T00:55:19.246Z,0.00
2023-01-30T00:56:18.925Z,0.00
2023-01-30T00:57:18.876Z,0.00
2023-01-30T00:58:18.874Z,0.00
2023-01-30T00:59:18.859Z,0.00
2023-01-30T01:00:18.847Z,0.00
2023-01-30T01:01:18.841Z,0.00
2023-01-30T01:02:18.923Z,0.00
2023-01-30T01:03:18.879Z,0.00
2023-01-30T01:04:18.816Z,0.00
2023-01-30T01:05:19.175Z,0.00
2023-01-30T01:06:18.796Z,0.00
2023-01-30T01:07:20.186Z,0.00
2023-01-30T01:08:18.771Z,0.00
2023-01-30T01:09:18.759Z,0.00
2023-01-30T01:10:18.763Z,0.00
2023-01-30T01:11:18.743Z,0.00
2023-01-30T01:12:18.757Z,0.00
2023-01-30T01:13:18.725Z,0.00
2023-01-30T01:14:18.723Z,0.00
2023-01-30T01:15:19.069Z,0.00
2023-01-30T01:16:18.728Z,0.00
2023-01-30T01:17:18.700Z,0.00
2023-01-30T01:18:18.681Z,0.00
2023-01-30T01:19:18.664Z,0.00
2023-01-30T01:20:18.678Z,0.00
2023-01-30T01:21:20.202Z,0.00
2023-01-30T01:22:18.666Z,0.00
2023-01-30T01:23:18.615Z,0.00
2023-01-30T01:24:18.613Z,0.00
2023-01-30T01:25:19.047Z,0.00
2023-01-30T01:26:18.612Z,0.00
2023-01-30T01:27:18.597Z,0.00
2023-01-30T01:28:18.571Z,0.00
2023-01-30T01:29:19.521Z,0.00
2023-01-30T01:30:18.551Z,0.00
2023-01-30T01:31:18.640Z,0.00
2023-01-30T01:32:18.585Z,0.00
2023-01-30T01:33:18.519Z,0.00
2023-01-30T01:34:18.521Z,0.00
2023-01-30T01:35:18.982Z,0.00
2023-01-30T01:36:42.412Z,0.00
2023-01-30T01:37:18.512Z,0.00
2023-01-30T01:38:18.469Z,0.00
2023-01-30T01:39:18.459Z,0.00
2023-01-30T01:40:18.473Z,0.00
2023-01-30T01:41:18.438Z,0.00
2023-01-30T01:42:18.452Z,0.00
2023-01-30T01:43:18.419Z,0.00
2023-01-30T01:44:18.415Z,0.00
2023-01-30T01:45:18.785Z,0.00
2023-01-30T01:46:18.392Z,0.00
2023-01-30T01:47:18.404Z,0.00
2023-01-30T01:48:18.371Z,0.00
2023-01-30T01:49:18.367Z,0.00
2023-01-30T01:50:18.353Z,0.00
2023-01-30T01:51:24.829Z,0.00
2023-01-30T01:52:26.106Z,0.00
2023-01-30T01:53:18.322Z,0.00
2023-01-30T01:54:18.310Z,0.00
2023-01-30T01:55:18.736Z,0.00
2023-01-30T01:56:18.293Z,0.00
2023-01-30T01:57:18.304Z,0.00
2023-01-30T01:58:18.279Z,0.00
2023-01-30T01:59:18.254Z,0.00
2023-01-30T02:00:18.249Z,0.00
2023-01-30T02:01:18.316Z,0.00
2023-01-30T02:02:18.301Z,0.00
2023-01-30T02:03:18.220Z,0.00
2023-01-30T02:04:18.221Z,0.00
2023-01-30T02:05:18.717Z,0.00
2023-01-30T02:06:18.190Z,0.00
2023-01-30T02:07:18.204Z,0.00
2023-01-30T02:08:18.169Z,0.00
2023-01-30T02:09:18.159Z,0.00
2023-01-30T02:10:18.171Z,0.00
2023-01-30T02:11:18.137Z,0.00
2023-01-30T02:12:18.155Z,0.00
2023-01-30T02:13:18.120Z,0.00
2023-01-30T02:14:18.109Z,0.00
2023-01-30T02:15:18.420Z,0.00
2023-01-30T02:16:18.094Z,0.00
2023-01-30T02:17:18.122Z,0.00
2023-01-30T02:18:18.070Z,0.00
2023-01-30T02:19:18.067Z,0.00
2023-01-30T02:20:18.057Z,0.00
2023-01-30T02:21:18.048Z,0.00
2023-01-30T02:22:18.059Z,0.00
2023-01-30T02:23:18.023Z,0.00
2023-01-30T02:24:18.014Z,0.00
2023-01-30T02:25:18.452Z,0.00
2023-01-30T02:26:18.013Z,0.00
2023-01-30T02:27:17.998Z,0.00
2023-01-30T02:28:17.972Z,0.00
2023-01-30T02:29:17.955Z,0.00
2023-01-30T02:30:17.956Z,0.00
2023-01-30T02:31:18.147Z,0.00
2023-01-30T02:32:17.965Z,0.00
2023-01-30T02:33:17.925Z,0.00
2023-01-30T02:34:17.921Z,0.00
2023-01-30T02:35:18.348Z,0.00
2023-01-30T02:36:17.897Z,0.00
2023-01-30T02:37:17.903Z,0.00
2023-01-30T02:38:17.880Z,0.00
2023-01-30T02:39:17.863Z,0.00
2023-01-30T02:40:17.849Z,0.00
2023-01-30T02:41:17.850Z,0.00
2023-01-30T02:42:17.857Z,0.00
2023-01-30T02:43:17.821Z,0.00
2023-01-30T02:44:17.821Z,0.00
2023-01-30T02:45:18.166Z,0.00
2023-01-30T02:46:17.868Z,0.00
2023-01-30T02:47:17.799Z,0.00
2023-01-30T02:48:17.779Z,0.00
2023-01-30T02:49:17.779Z,0.00
2023-01-30T02:50:17.753Z,0.00
2023-01-30T02:51:17.740Z,0.00
2023-01-30T02:52:18.566Z,0.00
2023-01-30T02:53:17.720Z,0.00
2023-01-30T02:54:17.743Z,0.00
2023-01-30T02:55:18.137Z,0.00
2023-01-30T02:56:17.697Z,0.00
2023-01-30T02:57:17.700Z,0.00
2023-01-30T02:58:17.670Z,0.00
2023-01-30T02:59:24.153Z,0.00
2023-01-30T03:00:24.147Z,0.00
2023-01-30T03:01:24.155Z,0.00
2023-01-30T03:02:25.202Z,0.00
2023-01-30T03:03:24.104Z,0.00
2023-01-30T03:04:17.615Z,0.00
2023-01-30T03:05:17.855Z,0.00
2023-01-30T03:06:17.596Z,0.00
2023-01-30T03:07:17.613Z,0.00
2023-01-30T03:08:17.585Z,0.00
2023-01-30T03:09:17.559Z,0.00
2023-01-30T03:10:17.577Z,0.00
2023-01-30T03:11:17.541Z,0.00
2023-01-30T03:12:17.557Z,0.00
2023-01-30T03:13:17.525Z,0.00
2023-01-30T03:14:17.527Z,0.00
2023-01-30T03:15:17.849Z,0.00
2023-01-30T03:16:17.512Z,0.00
2023-01-30T03:17:18.548Z,0.00
2023-01-30T03:18:17.479Z,0.00
2023-01-30T03:19:17.461Z,0.00
2023-01-30T03:20:17.458Z,0.00
2023-01-30T03:21:17.436Z,0.00
2023-01-30T03:22:17.453Z,0.00
2023-01-30T03:23:17.430Z,0.00
2023-01-30T03:24:17.434Z,0.00
2023-01-30T03:25:17.763Z,0.00
2023-01-30T03:26:18.381Z,0.00
2023-01-30T03:27:17.405Z,0.00
2023-01-30T03:28:17.380Z,0.00
2023-01-30T03:29:17.363Z,0.00
2023-01-30T03:30:17.362Z,0.00
2023-01-30T03:31:17.446Z,0.00
2023-01-30T03:32:17.364Z,0.00
2023-01-30T03:33:17.325Z,0.00
2023-01-30T03:34:17.317Z,0.00
2023-01-30T03:35:17.572Z,0.00
2023-01-30T03:36:17.302Z,0.00
2023-01-30T03:37:17.327Z,0.00
2023-01-30T03:38:17.272Z,0.00
2023-01-30T03:39:17.261Z,0.00
2023-01-30T03:40:17.254Z,0.00
2023-01-30T03:41:17.241Z,0.00
2023-01-30T03:42:17.238Z,0.00
2023-01-30T03:43:17.252Z,0.00
2023-01-30T03:44:17.211Z,0.00
2023-01-30T03:45:17.555Z,0.00
2023-01-30T03:46:17.257Z,0.00
2023-01-30T03:47:17.179Z,0.00
2023-01-30T03:48:17.210Z,0.00
2023-01-30T03:49:17.163Z,0.00
2023-01-30T03:50:17.153Z,0.00
2023-01-30T03:51:17.137Z,0.00
2023-01-30T03:52:17.133Z,0.00
2023-01-30T03:53:17.153Z,0.00
2023-01-30T03:54:17.115Z,0.00
2023-01-30T03:55:17.458Z,0.00
2023-01-30T03:56:17.113Z,0.00
2023-01-30T03:57:17.079Z,0.00
2023-01-30T03:58:17.107Z,0.00
2023-01-30T03:59:17.070Z,0.00
2023-01-30T04:00:17.070Z,0.00
2023-01-30T04:01:17.112Z,0.00
2023-01-30T04:02:17.052Z,0.00
2023-01-30T04:03:17.041Z,0.00
2023-01-30T04:04:23.507Z,0.00
2023-01-30T04:05:23.496Z,0.00
2023-01-30T04:06:23.491Z,0.00
2023-01-30T04:07:16.989Z,0.00
2023-01-30T04:08:17.003Z,0.00
2023-01-30T04:09:16.966Z,0.00
2023-01-30T04:10:16.952Z,0.00
2023-01-30T04:11:16.943Z,0.00
2023-01-30T04:12:16.938Z,0.00
2023-01-30T04:13:16.948Z,0.00
2023-01-30T04:14:16.912Z,0.00
2023-01-30T04:15:17.269Z,0.00
2023-01-30T04:16:16.945Z,0.00
2023-01-30T04:17:16.888Z,0.00
2023-01-30T04:18:16.890Z,0.00
2023-01-30T04:19:16.887Z,0.00
2023-01-30T04:20:16.858Z,0.00
2023-01-30T04:21:16.858Z,0.00
2023-01-30T04:22:16.838Z,0.00
2023-01-30T04:23:16.856Z,0.00
2023-01-30T04:24:16.823Z,0.00
2023-01-30T04:25:17.299Z,0.00
2023-01-30T04:26:16.874Z,0.00
2023-01-30T04:27:16.793Z,0.00
2023-01-30T04:28:16.804Z,0.00
2023-01-30T04:29:16.766Z,0.00
2023-01-30T04:30:16.752Z,0.00
2023-01-30T04:31:16.804Z,0.00
2023-01-30T04:32:16.740Z,0.00
2023-01-30T04:33:16.754Z,0.00
2023-01-30T04:34:16.723Z,0.00
2023-01-30T04:35:17.096Z,0.00
2023-01-30T04:36:16.739Z,0.00
2023-01-30T04:37:16.686Z,0.00
2023-01-30T04:38:16.701Z,0.00
2023-01-30T04:39:16.681Z,0.00
2023-01-30T04:40:16.661Z,0.00
2023-01-30T04:41:16.651Z,0.00
2023-01-30T04:42:16.643Z,0.00
2023-01-30T04:43:16.658Z,0.00
2023-01-30T04:44:16.615Z,0.00
2023-01-30T04:45:16.867Z,0.00
2023-01-30T04:46:16.601Z,0.00
2023-01-30T04:47:16.612Z,0.00
2023-01-30T04:48:16.613Z,0.00
2023-01-30T04:49:16.577Z,0.00
2023-01-30T04:50:16.568Z,0.00
2023-01-30T04:51:16.558Z,0.00
2023-01-30T04:52:16.565Z,0.00
2023-01-30T04:53:25.235Z,0.00
2023-01-30T04:54:16.537Z,0.00
2023-01-30T04:55:16.868Z,0.00
2023-01-30T04:56:16.496Z,0.00
2023-01-30T04:57:16.504Z,0.00
2023-01-30T04:58:16.474Z,0.00
2023-01-30T04:59:16.498Z,0.00
2023-01-30T05:00:16.469Z,0.00
2023-01-30T05:01:16.462Z,0.00
2023-01-30T05:02:16.468Z,0.00
2023-01-30T05:03:16.435Z,0.00
2023-01-30T05:04:16.449Z,0.00
2023-01-30T05:05:16.680Z,0.00
2023-01-30T05:06:16.402Z,0.00
2023-01-30T05:07:16.464Z,0.00
2023-01-30T05:08:16.400Z,0.00
2023-01-30T05:09:16.401Z,0.00
2023-01-30T05:10:16.364Z,0.00
2023-01-30T05:11:16.360Z,0.00
2023-01-30T05:12:16.366Z,0.00
2023-01-30T05:13:16.337Z,0.00
2023-01-30T05:14:16.749Z,0.00
2023-01-30T05:15:16.891Z,0.00
2023-01-30T05:16:16.338Z,0.00
2023-01-30T05:17:16.361Z,1.00
2023-01-30T05:18:16.301Z,0.00
2023-01-30T05:19:16.296Z,0.00
2023-01-30T05:20:16.313Z,0.00
2023-01-30T05:21:16.258Z,0.00
2023-01-30T05:22:16.231Z,1.00
2023-01-30T05:23:16.257Z,0.00
2023-01-30T05:24:16.269Z,0.00
2023-01-30T05:25:16.721Z,0.00
2023-01-30T05:26:16.268Z,0.00
2023-01-30T05:27:16.199Z,0.00
2023-01-30T05:28:16.189Z,0.00
2023-01-30T05:29:16.231Z,0.00
2023-01-30T05:30:16.158Z,0.00
2023-01-30T05:31:16.226Z,0.00
2023-01-30T05:32:16.144Z,0.00
2023-01-30T05:33:16.158Z,0.00
2023-01-30T05:34:16.161Z,0.00
2023-01-30T05:35:16.528Z,0.00
2023-01-30T05:36:16.111Z,0.00
2023-01-30T05:37:16.095Z,0.00
2023-01-30T05:38:16.087Z,0.00
2023-01-30T05:39:16.123Z,0.00
2023-01-30T05:40:16.063Z,0.00
2023-01-30T05:41:16.102Z,0.00
2023-01-30T05:42:16.062Z,0.00
2023-01-30T05:43:16.055Z,0.00
2023-01-30T05:44:16.076Z,0.00
2023-01-30T05:45:16.573Z,0.00
2023-01-30T05:46:16.048Z,0.00
2023-01-30T05:47:16.021Z,0.00
2023-01-30T05:48:15.974Z,0.00
2023-01-30T05:49:16.028Z,0.00
2023-01-30T05:50:16.000Z,0.00
2023-01-30T05:51:15.985Z,0.00
2023-01-30T05:52:16.144Z,0.00
2023-01-30T05:53:15.936Z,0.00
2023-01-30T05:54:15.953Z,0.00
2023-01-30T05:55:16.965Z,0.00
2023-01-30T05:56:15.906Z,0.00
2023-01-30T05:57:15.891Z,0.00
2023-01-30T05:58:15.880Z,0.00
2023-01-30T05:59:15.901Z,0.00
2023-01-30T06:00:15.856Z,0.00
2023-01-30T06:01:15.857Z,0.00
2023-01-30T06:02:15.847Z,0.00
2023-01-30T06:03:15.843Z,0.00
2023-01-30T06:04:15.852Z,0.00
2023-01-30T06:05:16.113Z,0.00
2023-01-30T06:06:15.796Z,0.00
2023-01-30T06:07:15.785Z,0.00
2023-01-30T06:08:15.803Z,0.00
2023-01-30T06:09:15.798Z,0.00
2023-01-30T06:10:15.752Z,0.00
2023-01-30T06:11:15.762Z,0.00
2023-01-30T06:12:15.744Z,0.00
2023-01-30T06:13:15.739Z,0.00
2023-01-30T06:14:15.842Z,0.00
2023-01-30T06:15:16.427Z,0.00
2023-01-30T06:16:15.786Z,0.00
2023-01-30T06:17:15.689Z,0.00
2023-01-30T06:18:15.617Z,1.00
2023-01-30T06:19:23.241Z,0.00
2023-01-30T06:20:15.657Z,0.00
2023-01-30T06:21:15.660Z,0.00
2023-01-30T06:22:15.634Z,0.00
2023-01-30T06:23:15.628Z,0.00
2023-01-30T06:24:15.648Z,0.00
2023-01-30T06:25:16.125Z,0.00
2023-01-30T06:26:15.635Z,0.00
2023-01-30T06:27:15.600Z,0.00
2023-01-30T06:28:15.583Z,0.00
2023-01-30T06:29:15.602Z,0.00
2023-01-30T06:30:15.548Z,0.00
2023-01-30T06:31:15.523Z,1.00
2023-01-30T06:32:15.552Z,0.00
2023-01-30T06:33:15.526Z,0.00
2023-01-30T06:34:15.549Z,0.00
2023-01-30T06:35:15.858Z,0.00
2023-01-30T06:36:15.496Z,0.00
2023-01-30T06:37:15.492Z,0.00
2023-01-30T06:38:15.482Z,0.00
2023-01-30T06:39:15.493Z,0.00
2023-01-30T06:40:15.470Z,0.00
2023-01-30T06:41:15.451Z,0.00
2023-01-30T06:42:15.445Z,0.00
2023-01-30T06:43:15.428Z,0.00
2023-01-30T06:44:15.437Z,0.00
2023-01-30T06:45:15.467Z,0.00
2023-01-30T06:46:15.562Z,0.00
2023-01-30T06:47:15.386Z,0.00
2023-01-30T06:48:15.372Z,0.00
2023-01-30T06:49:15.395Z,0.00
2023-01-30T06:50:15.319Z,1.00
2023-01-30T06:51:15.291Z,1.00
2023-01-30T06:52:21.777Z,1.00
2023-01-30T06:53:21.764Z,1.00
2023-01-30T06:54:15.335Z,0.00
2023-01-30T06:55:15.502Z,0.00
2023-01-30T06:56:15.250Z,1.00
2023-01-30T06:57:15.287Z,0.00
2023-01-30T06:58:15.247Z,1.00
2023-01-30T06:59:15.231Z,2.00
2023-01-30T07:00:15.227Z,1.00
2023-01-30T07:01:15.263Z,1.00
2023-01-30T07:02:15.370Z,5.00
2023-01-30T07:03:15.179Z,3.00
2023-01-30T07:04:15.239Z,4.00
2023-01-30T07:05:15.199Z,2.00
2023-01-30T07:06:15.164Z,5.00
2023-01-30T07:07:15.141Z,9.00
2023-01-30T07:08:15.127Z,3.00
2023-01-30T07:09:15.120Z,9.00
2023-01-30T07:10:15.154Z,12.00
2023-01-30T07:11:16.417Z,14.00
2023-01-30T07:12:15.072Z,15.00
2023-01-30T07:13:15.078Z,35.00
2023-01-30T07:14:15.063Z,27.00
2023-01-30T07:15:15.105Z,16.00
2023-01-30T07:16:15.040Z,15.00
2023-01-30T07:17:15.053Z,16.00
2023-01-30T07:18:15.033Z,22.00
2023-01-30T07:19:15.028Z,16.00
2023-01-30T07:20:15.040Z,20.00
2023-01-30T07:21:15.028Z,26.00
2023-01-30T07:22:14.977Z,19.00
2023-01-30T07:23:15.000Z,23.00
2023-01-30T07:24:14.970Z,47.00
2023-01-30T07:25:15.030Z,51.00
2023-01-30T07:26:15.042Z,54.00
2023-01-30T07:27:14.948Z,58.00
2023-01-30T07:28:14.961Z,82.00
2023-01-30T07:29:14.996Z,89.00
2023-01-30T07:30:14.931Z,85.00
2023-01-30T07:31:14.905Z,93.00
2023-01-30T07:32:14.889Z,80.00
2023-01-30T07:33:14.883Z,65.00
2023-01-30T07:34:14.873Z,51.00
2023-01-30T07:35:14.892Z,66.00
2023-01-30T07:36:14.840Z,47.00
2023-01-30T07:37:14.860Z,52.00
2023-01-30T07:38:14.816Z,80.00
2023-01-30T07:39:14.823Z,93.00
2023-01-30T07:40:14.833Z,69.00
2023-01-30T07:41:14.788Z,70.00
2023-01-30T07:42:14.786Z,51.00
2023-01-30T07:43:14.785Z,70.00
2023-01-30T07:44:14.761Z,65.00
2023-01-30T07:45:14.851Z,77.00
2023-01-30T07:46:14.768Z,69.00
2023-01-30T07:47:14.773Z,88.00
2023-01-30T07:48:14.734Z,83.00
2023-01-30T07:49:14.717Z,53.00
2023-01-30T07:50:14.723Z,78.00
2023-01-30T07:51:14.721Z,47.00
2023-01-30T07:52:14.692Z,66.00
2023-01-30T07:53:14.688Z,59.00
2023-01-30T07:54:14.688Z,92.00
2023-01-30T07:55:14.723Z,69.00
2023-01-30T07:56:14.677Z,72.00
2023-01-30T07:57:14.638Z,83.00
2023-01-30T07:58:14.681Z,102.00
2023-01-30T07:59:14.629Z,115.00
2023-01-30T08:00:14.609Z,88.00
2023-01-30T08:01:14.778Z,101.00
2023-01-30T08:02:14.580Z,81.00
2023-01-30T08:03:14.624Z,98.00
2023-01-30T08:04:14.603Z,202.00
2023-01-30T08:05:14.608Z,247.00
2023-01-30T08:06:14.580Z,219.00
2023-01-30T08:07:14.605Z,242.00
2023-01-30T08:08:14.524Z,125.00
2023-01-30T08:09:14.519Z,89.00
2023-01-30T08:10:14.503Z,128.00
2023-01-30T08:11:14.519Z,124.00
2023-01-30T08:12:14.480Z,146.00
2023-01-30T08:13:14.485Z,117.00
2023-01-30T08:14:14.459Z,166.00
2023-01-30T08:15:14.470Z,137.00
2023-01-30T08:16:14.487Z,105.00
2023-01-30T08:17:15.199Z,81.00
2023-01-30T08:18:14.435Z,204.00
2023-01-30T08:19:14.453Z,295.00
2023-01-30T08:20:14.413Z,348.00
2023-01-30T08:21:14.459Z,146.00
2023-01-30T08:22:14.397Z,241.00
2023-01-30T08:23:14.659Z,199.00
2023-01-30T08:24:14.380Z,175.00
2023-01-30T08:25:14.410Z,124.00
2023-01-30T08:26:14.431Z,114.00
2023-01-30T08:27:14.332Z,63.00
2023-01-30T08:28:14.351Z,209.00
2023-01-30T08:29:14.525Z,261.00
2023-01-30T08:30:14.342Z,122.00
2023-01-30T08:31:14.918Z,221.00
2023-01-30T08:32:15.630Z,176.00
2023-01-30T08:33:14.278Z,114.00
2023-01-30T08:34:14.267Z,89.00
2023-01-30T08:35:15.773Z,94.00
2023-01-30T08:36:14.277Z,152.00
2023-01-30T08:37:14.236Z,174.00
2023-01-30T08:38:14.221Z,190.00
2023-01-30T08:39:14.237Z,188.00
2023-01-30T08:40:14.208Z,120.00
2023-01-30T08:41:14.300Z,68.00
2023-01-30T08:42:14.181Z,152.00
2023-01-30T08:43:14.179Z,164.00
2023-01-30T08:44:14.217Z,147.00
2023-01-30T08:45:14.156Z,111.00
2023-01-30T08:46:14.213Z,115.00
2023-01-30T08:47:14.133Z,158.00
2023-01-30T08:48:14.128Z,264.00
2023-01-30T08:49:14.111Z,195.00
2023-01-30T08:50:14.100Z,182.00
2023-01-30T08:51:14.250Z,271.00
2023-01-30T08:52:14.137Z,376.00
2023-01-30T08:53:14.070Z,178.00
2023-01-30T08:54:14.304Z,158.00
2023-01-30T08:55:14.215Z,212.00
2023-01-30T08:56:14.153Z,255.00
2023-01-30T08:57:14.107Z,97.00
2023-01-30T08:58:14.282Z,279.00
2023-01-30T08:59:47.808Z,246.00
2023-01-30T09:00:14.054Z,194.00
2023-01-30T09:01:14.038Z,299.00
2023-01-30T09:02:14.033Z,286.00
2023-01-30T09:03:14.005Z,294.00
2023-01-30T09:04:14.014Z,340.00
2023-01-30T09:05:15.559Z,357.00
2023-01-30T09:06:13.959Z,363.00
2023-01-30T09:07:21.733Z,300.00
2023-01-30T09:08:13.932Z,286.00
2023-01-30T09:09:20.401Z,452.00
2023-01-30T09:10:21.169Z,606.00
2023-01-30T09:11:13.908Z,732.00
2023-01-30T09:12:13.886Z,427.00
2023-01-30T09:13:20.367Z,533.00
2023-01-30T09:14:13.854Z,672.00
2023-01-30T09:15:20.335Z,328.00
2023-01-30T09:16:13.877Z,466.00
2023-01-30T09:17:13.830Z,393.00
2023-01-30T09:18:13.827Z,338.00
2023-01-30T09:19:13.809Z,608.00
2023-01-30T09:20:13.818Z,336.00
2023-01-30T09:21:13.823Z,591.00
2023-01-30T09:22:13.782Z,376.00
2023-01-30T09:23:13.760Z,509.00
2023-01-30T09:24:13.761Z,629.00
2023-01-30T09:25:13.742Z,621.00
2023-01-30T09:26:13.781Z,627.00
2023-01-30T09:27:13.722Z,365.00
2023-01-30T09:28:13.714Z,695.00
2023-01-30T09:29:13.695Z,925.00
2023-01-30T09:30:13.699Z,556.00
2023-01-30T09:31:13.913Z,878.00
2023-01-30T09:32:13.770Z,1058.00
2023-01-30T09:33:14.852Z,946.00
2023-01-30T09:34:13.648Z,444.00
2023-01-30T09:35:13.632Z,830.00
2023-01-30T09:36:13.640Z,877.00
2023-01-30T09:37:13.639Z,968.00
2023-01-30T09:38:13.625Z,653.00
2023-01-30T09:39:13.611Z,502.00
2023-01-30T09:40:13.616Z,872.00
2023-01-30T09:41:13.578Z,349.00
2023-01-30T09:42:13.590Z,701.00
2023-01-30T09:43:13.615Z,840.00
2023-01-30T09:44:13.543Z,672.00
2023-01-30T09:45:13.533Z,447.00
2023-01-30T09:46:13.676Z,600.00
2023-01-30T09:47:13.564Z,776.00
2023-01-30T09:48:13.517Z,1003.00
2023-01-30T09:49:13.492Z,807.00
2023-01-30T09:50:13.502Z,924.00
2023-01-30T09:51:13.483Z,882.00
2023-01-30T09:52:13.510Z,709.00
2023-01-30T09:53:13.451Z,525.00
2023-01-30T09:54:13.440Z,402.00
2023-01-30T09:55:13.439Z,405.00
2023-01-30T09:56:13.448Z,366.00
2023-01-30T09:57:21.484Z,399.00
2023-01-30T09:58:13.412Z,576.00
2023-01-30T09:59:13.382Z,587.00
2023-01-30T10:00:13.399Z,514.00
2023-01-30T10:01:13.442Z,369.00
2023-01-30T10:02:13.389Z,255.00
2023-01-30T10:03:13.425Z,242.00
2023-01-30T10:04:13.417Z,204.00
2023-01-30T10:05:13.376Z,81.00
2023-01-30T10:06:13.333Z,362.00
2023-01-30T10:07:13.363Z,206.00
2023-01-30T10:08:13.301Z,201.00
2023-01-30T10:09:13.285Z,83.00
2023-01-30T10:10:13.392Z,168.00
2023-01-30T10:11:13.288Z,207.00
2023-01-30T10:12:13.281Z,156.00
2023-01-30T10:13:13.252Z,342.00
2023-01-30T10:14:13.265Z,401.00
2023-01-30T10:15:13.223Z,356.00
2023-01-30T10:16:13.311Z,493.00
2023-01-30T10:17:13.248Z,413.00
2023-01-30T10:18:13.245Z,438.00
2023-01-30T10:19:16.058Z,456.00
2023-01-30T10:20:13.181Z,522.00
2023-01-30T10:21:13.196Z,412.00
2023-01-30T10:22:13.192Z,566.00
2023-01-30T10:23:13.135Z,395.00
2023-01-30T10:24:13.131Z,212.00
2023-01-30T10:25:13.134Z,146.00
2023-01-30T10:26:13.169Z,141.00
2023-01-30T10:27:13.123Z,152.00
2023-01-30T10:28:13.163Z,187.00
2023-01-30T10:29:13.088Z,193.00
2023-01-30T10:30:13.150Z,141.00
2023-01-30T10:31:13.192Z,130.00
2023-01-30T10:32:13.371Z,200.00
2023-01-30T10:33:13.044Z,303.00
2023-01-30T10:34:13.031Z,344.00
2023-01-30T10:35:13.042Z,189.00
2023-01-30T10:36:13.008Z,256.00
2023-01-30T10:37:13.122Z,396.00
2023-01-30T10:38:12.998Z,322.00
2023-01-30T10:39:12.970Z,250.00
2023-01-30T10:40:12.971Z,300.00
2023-01-30T10:41:12.966Z,295.00
2023-01-30T10:42:12.975Z,229.00
2023-01-30T10:43:12.945Z,279.00
2023-01-30T10:44:12.951Z,178.00
2023-01-30T10:45:12.928Z,132.00
2023-01-30T10:46:12.959Z,206.00
2023-01-30T10:47:12.915Z,331.00
2023-01-30T10:48:12.902Z,225.00
2023-01-30T10:49:12.883Z,164.00
2023-01-30T10:50:13.465Z,190.00
2023-01-30T10:51:12.911Z,75.00
2023-01-30T10:52:12.874Z,198.00
2023-01-30T10:53:12.853Z,211.00
2023-01-30T10:54:12.839Z,169.00
2023-01-30T10:55:12.837Z,87.00
2023-01-30T10:56:12.800Z,105.00
2023-01-30T10:57:12.865Z,276.00
2023-01-30T10:58:12.778Z,229.00
2023-01-30T10:59:12.768Z,187.00
2023-01-30T11:00:12.780Z,185.00
2023-01-30T11:01:12.748Z,94.00
2023-01-30T11:02:12.785Z,308.00
2023-01-30T11:03:12.834Z,269.00
2023-01-30T11:04:12.801Z,290.00
2023-01-30T11:05:12.723Z,403.00
2023-01-30T11:06:12.726Z,428.00
2023-01-30T11:07:12.719Z,334.00
2023-01-30T11:08:12.712Z,582.00
2023-01-30T11:09:12.664Z,611.00
2023-01-30T11:10:12.671Z,658.00
2023-01-30T11:11:13.037Z,536.00
2023-01-30T11:12:12.653Z,559.00
2023-01-30T11:13:12.643Z,571.00
2023-01-30T11:14:19.112Z,603.00
2023-01-30T11:15:12.599Z,423.00
2023-01-30T11:16:12.680Z,670.00
2023-01-30T11:17:20.345Z,518.00
2023-01-30T11:19:21.928Z,499.00
2023-01-30T11:20:13.605Z,276.00
2023-01-30T11:21:12.539Z,350.00
2023-01-30T11:22:12.540Z,413.00
2023-01-30T11:23:12.555Z,459.00
2023-01-30T11:24:12.515Z,230.00
2023-01-30T11:25:14.250Z,175.00
2023-01-30T11:26:12.496Z,259.00
2023-01-30T11:27:12.565Z,1081.00
2023-01-30T11:28:12.510Z,726.00
2023-01-30T11:29:12.524Z,526.00
2023-01-30T11:30:12.759Z,393.00
2023-01-30T11:31:12.527Z,475.00
2023-01-30T11:32:12.449Z,512.00
2023-01-30T11:33:12.452Z,542.00
2023-01-30T11:34:12.403Z,354.00
2023-01-30T11:35:12.395Z,419.00
2023-01-30T11:36:12.408Z,505.00
2023-01-30T11:37:12.396Z,512.00
2023-01-30T11:38:12.405Z,246.00
2023-01-30T11:39:12.411Z,752.00
2023-01-30T11:40:12.362Z,480.00
2023-01-30T11:41:12.339Z,477.00
2023-01-30T11:42:12.327Z,355.00
2023-01-30T11:43:12.350Z,507.00
2023-01-30T11:44:12.313Z,426.00
2023-01-30T11:45:17.582Z,360.00
2023-01-30T11:46:12.726Z,400.00
2023-01-30T11:47:12.316Z,190.00
2023-01-30T11:48:23.479Z,388.00
2023-01-30T11:49:44.718Z,499.00
2023-01-30T11:50:24.327Z,438.00
2023-01-30T11:51:36.783Z,330.00
2023-01-30T11:52:12.236Z,360.00
2023-01-30T11:53:12.243Z,398.00
2023-01-30T11:54:12.224Z,333.00
2023-01-30T11:55:12.252Z,406.00
2023-01-30T11:56:13.104Z,381.00
2023-01-30T11:57:12.248Z,460.00
2023-01-30T11:58:12.202Z,362.00
2023-01-30T11:59:12.153Z,148.00
2023-01-30T12:00:12.161Z,430.00
2023-01-30T12:01:12.182Z,677.00
2023-01-30T12:02:12.217Z,492.00
2023-01-30T12:03:12.173Z,308.00
2023-01-30T12:04:12.142Z,590.00
2023-01-30T12:05:12.094Z,834.00
2023-01-30T12:06:12.112Z,505.00
2023-01-30T12:07:12.068Z,427.00
2023-01-30T12:08:12.761Z,340.00
2023-01-30T12:09:12.077Z,387.00
2023-01-30T12:10:12.071Z,180.00
2023-01-30T12:11:12.030Z,245.00
2023-01-30T12:12:12.029Z,283.00
2023-01-30T12:13:12.036Z,127.00
2023-01-30T12:14:12.001Z,368.00
2023-01-30T12:15:12.029Z,503.00
2023-01-30T12:16:12.069Z,323.00
2023-01-30T12:17:11.977Z,216.00
2023-01-30T12:18:11.994Z,427.00
2023-01-30T12:19:11.973Z,399.00
2023-01-30T12:20:11.957Z,172.00
2023-01-30T12:21:11.979Z,213.00
2023-01-30T12:22:11.924Z,244.00
2023-01-30T12:23:11.962Z,400.00
2023-01-30T12:24:11.906Z,282.00
2023-01-30T12:25:11.903Z,182.00
2023-01-30T12:26:11.945Z,170.00
2023-01-30T12:27:11.873Z,242.00
2023-01-30T12:28:11.929Z,219.00
2023-01-30T12:29:11.872Z,284.00
2023-01-30T12:30:12.471Z,260.00
2023-01-30T12:31:11.850Z,222.00
2023-01-30T12:32:12.853Z,341.00
2023-01-30T12:33:11.848Z,550.00
2023-01-30T12:34:11.834Z,454.00
2023-01-30T12:35:11.801Z,318.00
2023-01-30T12:36:11.782Z,268.00
2023-01-30T12:37:11.790Z,361.00
2023-01-30T12:38:11.786Z,515.00
2023-01-30T12:39:11.764Z,706.00
2023-01-30T12:40:11.768Z,446.00
2023-01-30T12:41:11.747Z,343.00
2023-01-30T12:42:11.747Z,266.00
2023-01-30T12:43:11.795Z,322.00
2023-01-30T12:44:11.701Z,438.00
2023-01-30T12:45:11.718Z,272.00
2023-01-30T12:46:11.739Z,195.00
2023-01-30T12:47:11.663Z,369.00
2023-01-30T12:48:11.706Z,292.00
2023-01-30T12:49:12.259Z,236.00
2023-01-30T12:50:11.669Z,256.00
2023-01-30T12:51:11.625Z,526.00
2023-01-30T12:52:11.624Z,494.00
2023-01-30T12:53:11.627Z,259.00
2023-01-30T12:54:11.642Z,289.00
2023-01-30T12:55:11.640Z,354.00
2023-01-30T12:56:11.581Z,273.00
2023-01-30T12:57:11.624Z,145.00
2023-01-30T12:58:11.632Z,309.00
2023-01-30T12:59:11.604Z,317.00
2023-01-30T13:00:11.563Z,354.00
2023-01-30T13:01:11.562Z,200.00
2023-01-30T13:02:11.513Z,128.00
2023-01-30T13:03:11.617Z,459.00